Time,TemperatureF,DewpointF,PressureIn,WindDirection,WindDirectionDegrees,WindSpeedMPH,WindSpeedGustMPH,Humidity,HourlyPrecipIn,Conditions,Clouds,dailyrainin,SolarRadiationWatts/m^2,SoftwareType,DateUTC
2013-03-09 00:03:00,33.0,28.0,-100.00,East,80,1.0,6.0,83,0.00,,,0.00,0.000000,,2013-03-09 05:03:00,
2013-03-09 00:32:00,32.0,28.0,-100.00,NNW,341,0.0,0.0,85,0.00,,,0.00,0.000000,,2013-03-09 05:32:00,
2013-03-09 00:43:00,32.0,28.0,-100.00,NNW,341,0.0,0.0,85,0.00,,,0.00,0.000000,,2013-03-09 05:43:00,
2013-03-09 00:53:00,32.0,28.0,-100.00,NNW,341,0.0,0.0,85,0.00,,,0.00,0.000000,,2013-03-09 05:53:00,
2013-03-09 01:02:00,32.0,28.0,-100.00,NNW,341,0.0,0.0,85,0.00,,,0.00,0.000000,,2013-03-09 06:02:00,
2013-03-09 01:32:00,29.0,26.0,-100.00,ENE,72,0.0,0.0,89,0.00,,,0.00,0.000000,,2013-03-09 06:32:00,
2013-03-09 01:42:00,29.0,26.0,-100.00,ENE,72,0.0,0.0,89,0.00,,,0.00,0.000000,,2013-03-09 06:42:00,
2013-03-09 01:52:00,29.0,26.0,-100.00,ENE,72,0.0,0.0,89,0.00,,,0.00,0.000000,,2013-03-09 06:52:00,
2013-03-09 02:01:00,29.0,26.0,-100.00,ENE,72,0.0,0.0,89,0.00,,,0.00,0.000000,,2013-03-09 07:01:00,
2013-03-09 02:32:00,29.0,26.0,-100.00,West,278,0.0,0.0,88,0.00,,,0.00,0.000000,,2013-03-09 07:32:00,
2013-03-09 02:42:00,29.0,26.0,-100.00,West,278,0.0,0.0,88,0.00,,,0.00,0.000000,,2013-03-09 07:42:00,
2013-03-09 02:52:00,29.0,26.0,-100.00,West,278,0.0,0.0,88,0.00,,,0.00,0.000000,,2013-03-09 07:52:00,
2013-03-09 03:01:00,29.0,26.0,-100.00,West,278,0.0,0.0,88,0.00,,,0.00,0.000000,,2013-03-09 08:01:00,
2013-03-09 03:32:00,36.0,28.0,-100.00,NE,44,5.0,7.0,72,0.00,,,0.00,0.000000,,2013-03-09 08:32:00,
2013-03-09 03:42:00,36.0,28.0,-100.00,NE,44,5.0,7.0,72,0.00,,,0.00,0.000000,,2013-03-09 08:42:00,
2013-03-09 03:52:00,36.0,28.0,-100.00,NE,44,5.0,7.0,72,0.00,,,0.00,0.000000,,2013-03-09 08:52:00,
2013-03-09 04:02:00,36.0,28.0,-100.00,NE,44,5.0,7.0,72,0.00,,,0.00,0.000000,,2013-03-09 09:02:00,
2013-03-09 04:32:00,36.0,28.0,-100.00,NNE,31,4.0,7.0,71,0.00,,,0.00,0.000000,,2013-03-09 09:32:00,
2013-03-09 04:42:00,36.0,28.0,-100.00,NNE,31,4.0,7.0,71,0.00,,,0.00,0.000000,,2013-03-09 09:42:00,
2013-03-09 04:52:00,36.0,28.0,-100.00,NNE,31,4.0,7.0,71,0.00,,,0.00,0.000000,,2013-03-09 09:52:00,
2013-03-09 05:01:00,36.0,28.0,-100.00,NNE,31,4.0,7.0,71,0.00,,,0.00,0.000000,,2013-03-09 10:01:00,
2013-03-09 05:32:00,35.0,27.0,-100.00,NNE,32,2.0,8.0,72,0.00,,,0.00,0.000000,,2013-03-09 10:32:00,
2013-03-09 05:42:00,35.0,27.0,-100.00,NNE,32,2.0,8.0,72,0.00,,,0.00,0.000000,,2013-03-09 10:42:00,
2013-03-09 05:52:00,35.0,27.0,-100.00,NNE,32,2.0,8.0,72,0.00,,,0.00,0.000000,,2013-03-09 10:52:00,
2013-03-09 06:01:00,35.0,27.0,-100.00,NNE,32,2.0,8.0,72,0.00,,,0.00,0.000000,,2013-03-09 11:01:00,
2013-03-09 06:32:00,34.0,27.0,-100.00,ENE,65,2.0,5.0,75,0.00,,,0.00,0.000000,,2013-03-09 11:32:00,
2013-03-09 06:42:00,34.0,27.0,-100.00,ENE,65,2.0,5.0,75,0.00,,,0.00,0.000000,,2013-03-09 11:42:00,
2013-03-09 06:52:00,34.0,27.0,-100.00,ENE,65,2.0,5.0,75,0.00,,,0.00,0.000000,,2013-03-09 11:52:00,
2013-03-09 07:02:00,34.0,27.0,-100.00,ENE,65,2.0,5.0,75,0.00,,,0.00,0.000000,,2013-03-09 12:02:00,
2013-03-09 07:32:00,34.0,27.0,-100.00,NNE,27,1.0,8.0,74,0.00,,,0.00,1.000000,,2013-03-09 12:32:00,
2013-03-09 07:42:00,34.0,27.0,-100.00,NNE,27,1.0,8.0,74,0.00,,,0.00,1.000000,,2013-03-09 12:42:00,
2013-03-09 07:52:00,34.0,27.0,-100.00,NNE,27,1.0,8.0,74,0.00,,,0.00,1.000000,,2013-03-09 12:52:00,
2013-03-09 08:02:00,34.0,27.0,-100.00,NNE,27,1.0,8.0,74,0.00,,,0.00,1.000000,,2013-03-09 13:02:00,
2013-03-09 08:32:00,34.0,30.0,-100.00,SW,217,0.0,4.0,85,0.00,,,0.00,43.000000,,2013-03-09 13:32:00,
2013-03-09 08:42:00,34.0,30.0,-100.00,SW,217,0.0,4.0,85,0.00,,,0.00,43.000000,,2013-03-09 13:42:00,
2013-03-09 08:52:00,34.0,30.0,-100.00,SW,217,0.0,4.0,85,0.00,,,0.00,43.000000,,2013-03-09 13:52:00,
2013-03-09 09:01:00,34.0,30.0,-100.00,SW,217,0.0,4.0,85,0.00,,,0.00,43.000000,,2013-03-09 14:01:00,
2013-03-09 09:32:00,41.0,28.0,-100.00,North,5,4.0,8.0,60,0.00,,,0.00,83.000000,,2013-03-09 14:32:00,
2013-03-09 09:42:00,41.0,28.0,-100.00,North,5,4.0,8.0,60,0.00,,,0.00,83.000000,,2013-03-09 14:42:00,
2013-03-09 09:52:00,41.0,28.0,-100.00,North,5,4.0,8.0,60,0.00,,,0.00,83.000000,,2013-03-09 14:52:00,
2013-03-09 10:02:00,41.0,28.0,-100.00,North,5,4.0,8.0,60,0.00,,,0.00,83.000000,,2013-03-09 15:02:00,
2013-03-09 10:32:00,47.0,29.0,-100.00,NNE,19,3.0,7.0,50,0.00,,,0.00,330.000000,,2013-03-09 15:32:00,
2013-03-09 10:42:00,47.0,29.0,-100.00,NNE,19,3.0,7.0,50,0.00,,,0.00,330.000000,,2013-03-09 15:42:00,
2013-03-09 10:52:00,47.0,29.0,-100.00,NNE,19,3.0,7.0,50,0.00,,,0.00,330.000000,,2013-03-09 15:52:00,
2013-03-09 11:01:00,47.0,29.0,-100.00,NNE,19,3.0,7.0,50,0.00,,,0.00,330.000000,,2013-03-09 16:01:00,
2013-03-09 11:32:00,50.0,29.0,-100.00,SSW,206,5.0,8.0,44,0.00,,,0.00,474.000000,,2013-03-09 16:32:00,
2013-03-09 11:42:00,50.0,29.0,-100.00,SSW,206,5.0,8.0,44,0.00,,,0.00,474.000000,,2013-03-09 16:42:00,
2013-03-09 11:52:00,50.0,29.0,-100.00,SSW,206,5.0,8.0,44,0.00,,,0.00,474.000000,,2013-03-09 16:52:00,
2013-03-09 12:01:00,50.0,29.0,-100.00,SSW,206,5.0,8.0,44,0.00,,,0.00,474.000000,,2013-03-09 17:01:00,
2013-03-09 12:32:00,53.0,31.0,-100.00,WSW,253,4.0,8.0,42,0.00,,,0.00,413.000000,,2013-03-09 17:32:00,
2013-03-09 12:42:00,53.0,31.0,-100.00,WSW,253,4.0,8.0,42,0.00,,,0.00,413.000000,,2013-03-09 17:42:00,
2013-03-09 12:52:00,53.0,31.0,-100.00,WSW,253,4.0,8.0,42,0.00,,,0.00,413.000000,,2013-03-09 17:52:00,
2013-03-09 13:02:00,53.0,31.0,-100.00,WSW,253,4.0,8.0,42,0.00,,,0.00,413.000000,,2013-03-09 18:02:00,
2013-03-09 13:32:00,60.0,32.0,-100.00,SW,235,5.0,12.0,34,0.00,,,0.00,485.000000,,2013-03-09 18:32:00,
2013-03-09 13:42:00,60.0,32.0,-100.00,SW,235,5.0,12.0,34,0.00,,,0.00,485.000000,,2013-03-09 18:42:00,
2013-03-09 13:52:00,60.0,32.0,-100.00,SW,235,5.0,12.0,34,0.00,,,0.00,485.000000,,2013-03-09 18:52:00,
2013-03-09 14:02:00,60.0,32.0,-100.00,SW,235,5.0,12.0,34,0.00,,,0.00,485.000000,,2013-03-09 19:02:00,
2013-03-09 14:32:00,58.0,31.0,-100.00,NW,308,3.0,15.0,35,0.00,,,0.00,376.000000,,2013-03-09 19:32:00,
2013-03-09 14:42:00,58.0,31.0,-100.00,NW,308,3.0,15.0,35,0.00,,,0.00,376.000000,,2013-03-09 19:42:00,
2013-03-09 14:52:00,58.0,31.0,-100.00,NW,308,3.0,15.0,35,0.00,,,0.00,376.000000,,2013-03-09 19:52:00,
2013-03-09 15:02:00,58.0,31.0,-100.00,NW,308,3.0,15.0,35,0.00,,,0.00,376.000000,,2013-03-09 20:02:00,
2013-03-09 15:32:00,60.0,32.0,-100.00,NW,324,3.0,8.0,34,0.00,,,0.00,300.000000,,2013-03-09 20:32:00,
2013-03-09 15:42:00,60.0,32.0,-100.00,NW,324,3.0,8.0,34,0.00,,,0.00,300.000000,,2013-03-09 20:42:00,
2013-03-09 15:52:00,60.0,32.0,-100.00,NW,324,3.0,8.0,34,0.00,,,0.00,300.000000,,2013-03-09 20:52:00,
2013-03-09 16:02:00,60.0,32.0,-100.00,NW,324,3.0,8.0,34,0.00,,,0.00,300.000000,,2013-03-09 21:02:00,
2013-03-09 16:32:00,60.0,31.0,-100.00,SW,233,6.0,10.0,33,0.00,,,0.00,344.000000,,2013-03-09 21:32:00,
2013-03-09 16:42:00,60.0,31.0,-100.00,SW,233,6.0,10.0,33,0.00,,,0.00,344.000000,,2013-03-09 21:42:00,
2013-03-09 16:52:00,60.0,31.0,-100.00,SW,233,6.0,10.0,33,0.00,,,0.00,344.000000,,2013-03-09 21:52:00,
2013-03-09 17:01:00,60.0,31.0,-100.00,SW,233,6.0,10.0,33,0.00,,,0.00,344.000000,,2013-03-09 22:01:00,
2013-03-09 17:32:00,59.0,33.0,-100.00,WSW,243,2.0,8.0,37,0.00,,,0.00,138.000000,,2013-03-09 22:32:00,
2013-03-09 17:42:00,59.0,33.0,-100.00,WSW,243,2.0,8.0,37,0.00,,,0.00,138.000000,,2013-03-09 22:42:00,
2013-03-09 17:52:00,59.0,33.0,-100.00,WSW,243,2.0,8.0,37,0.00,,,0.00,138.000000,,2013-03-09 22:52:00,
2013-03-09 18:01:00,59.0,33.0,-100.00,WSW,243,2.0,8.0,37,0.00,,,0.00,138.000000,,2013-03-09 23:01:00,
2013-03-09 18:32:00,58.0,31.0,-100.00,SSW,200,5.0,8.0,35,0.00,,,0.00,64.000000,,2013-03-09 23:32:00,
2013-03-09 18:42:00,58.0,31.0,-100.00,SSW,200,5.0,8.0,35,0.00,,,0.00,64.000000,,2013-03-09 23:42:00,
2013-03-09 18:52:00,58.0,31.0,-100.00,SSW,200,5.0,8.0,35,0.00,,,0.00,64.000000,,2013-03-09 23:52:00,
2013-03-09 19:02:00,58.0,31.0,-100.00,SSW,200,5.0,8.0,35,0.00,,,0.00,64.000000,,2013-03-10 00:02:00,
2013-03-09 19:32:00,54.0,33.0,-100.00,South,181,0.0,8.0,44,0.00,,,0.00,11.000000,,2013-03-10 00:32:00,
2013-03-09 19:43:00,54.0,33.0,-100.00,South,181,0.0,8.0,44,0.00,,,0.00,11.000000,,2013-03-10 00:43:00,
2013-03-09 19:52:00,54.0,33.0,-100.00,South,181,0.0,8.0,44,0.00,,,0.00,11.000000,,2013-03-10 00:52:00,
2013-03-09 20:01:00,54.0,33.0,-100.00,South,181,0.0,8.0,44,0.00,,,0.00,11.000000,,2013-03-10 01:01:00,
2013-03-09 20:32:00,49.0,36.0,-100.00,SSE,154,0.0,0.0,61,0.00,,,-99.99,0.000000,,2013-03-10 01:32:00,
2013-03-09 20:42:00,49.0,36.0,-100.00,SSE,154,0.0,0.0,61,0.00,,,-99.99,0.000000,,2013-03-10 01:42:00,
2013-03-09 20:52:00,49.0,36.0,-100.00,SSE,154,0.0,0.0,61,0.00,,,-99.99,0.000000,,2013-03-10 01:52:00,
2013-03-09 21:01:00,49.0,36.0,-100.00,SSE,154,0.0,0.0,61,0.00,,,-99.99,0.000000,,2013-03-10 02:01:00,
2013-03-09 21:32:00,48.0,35.0,-100.00,SSE,157,0.0,5.0,60,0.00,,,-99.99,0.000000,,2013-03-10 02:32:00,
2013-03-09 21:42:00,48.0,35.0,-100.00,SSE,157,0.0,5.0,60,0.00,,,-99.99,0.000000,,2013-03-10 02:42:00,
2013-03-09 21:52:00,48.0,35.0,-100.00,SSE,157,0.0,5.0,60,0.00,,,-99.99,0.000000,,2013-03-10 02:52:00,
2013-03-09 22:02:00,48.0,35.0,-100.00,SSE,157,0.0,5.0,60,0.00,,,-99.99,0.000000,,2013-03-10 03:02:00,
2013-03-09 22:32:00,45.0,34.0,-100.00,SW,221,0.0,0.0,65,0.00,,,0.00,0.000000,,2013-03-10 03:32:00,
2013-03-09 22:42:00,45.0,34.0,-100.00,SW,221,0.0,0.0,65,0.00,,,0.00,0.000000,,2013-03-10 03:42:00,
2013-03-09 22:52:00,45.0,34.0,-100.00,SW,221,0.0,0.0,65,0.00,,,0.00,0.000000,,2013-03-10 03:52:00,
2013-03-09 23:01:00,45.0,34.0,-100.00,SW,221,0.0,0.0,65,0.00,,,0.00,0.000000,,2013-03-10 04:01:00,
2013-03-09 23:32:00,41.0,35.0,-100.00,SSE,159,0.0,0.0,78,0.00,,,0.00,0.000000,,2013-03-10 04:32:00,
2013-03-09 23:42:00,41.0,35.0,-100.00,SSE,159,0.0,0.0,78,0.00,,,0.00,0.000000,,2013-03-10 04:42:00,
2013-03-09 23:52:00,41.0,35.0,-100.00,SSE,159,0.0,0.0,78,0.00,,,0.00,0.000000,,2013-03-10 04:52:00,